Time;durP1;ratioP1;P1;durP2;ratioP2;P2;SDS_P1;SDS_P2;PMS_P1;PMS_P2;Temp;Humidity;BMP_temperature;BMP_pressure;BME280_temperature;BME280_humidity;BME280_pressure;Samples;Min_cycle;Max_cycle;Signal;HPM_P1;HPM_P2
2022/03/12 00:00:42;;;;;;;9.57;3.75;;;6.10;52.00;;;;;;5049201;28;20079;-86
2022/03/12 00:03:10;;;;;;;6.55;3.92;;;6.20;52.00;;;;;;5016132;28;20037;-86
2022/03/12 00:05:37;;;;;;;12.23;3.65;;;6.20;52.10;;;;;;5031465;28;20044;-86
2022/03/12 00:08:04;;;;;;;8.00;3.88;;;7.60;52.80;;;;;;5047844;28;20045;-87
2022/03/12 00:10:33;;;;;;;7.70;3.67;;;6.10;52.00;;;;;;5063867;28;20082;-87
2022/03/12 00:13:02;;;;;;;6.78;3.65;;;6.20;51.90;;;;;;5047940;28;20056;-87
2022/03/12 00:15:32;;;;;;;11.15;3.85;;;6.20;51.90;;;;;;5063501;28;20049;-87
2022/03/12 00:17:58;;;;;;;8.73;3.80;;;6.20;51.90;;;;;;5048025;28;20044;-86
2022/03/12 00:20:27;;;;;;;8.15;3.70;;;6.20;51.90;;;;;;5047987;28;20062;-88
2022/03/12 00:22:52;;;;;;;7.65;3.35;;;7.30;52.50;;;;;;5015226;28;20076;-89
2022/03/12 00:25:21;;;;;;;17.42;4.82;;;7.30;52.60;;;;;;5031386;28;20106;-88
2022/03/12 00:27:50;;;;;;;7.60;4.20;;;6.80;52.40;;;;;;5047243;28;20041;-89
2022/03/12 00:30:18;;;;;;;10.13;4.10;;;6.70;52.20;;;;;;5048280;28;20051;-89
2022/03/12 00:32:47;;;;;;;8.15;3.90;;;7.50;52.60;;;;;;5047443;28;20045;-88
2022/03/12 00:35:17;;;;;;;7.75;4.43;;;6.20;52.60;;;;;;5031927;28;20047;-89
2022/03/12 00:37:43;;;;;;;6.20;3.67;;;6.20;51.90;;;;;;5047350;28;20076;-89
2022/03/12 00:40:09;;;;;;;14.10;4.63;;;6.20;51.90;;;;;;5030843;28;20087;-89
2022/03/12 00:42:35;;;;;;;5.05;2.90;;;6.20;52.00;;;;;;5031525;28;20076;-88
2022/03/12 00:45:01;;;;;;;10.77;3.80;;;7.00;52.50;;;;;;5017112;28;20132;-89
2022/03/12 00:47:27;;;;;;;7.13;3.67;;;6.20;52.10;;;;;;5051811;28;20037;-88
2022/03/12 00:49:54;;;;;;;7.65;3.97;;;6.90;52.50;;;;;;5033970;28;20052;-87
2022/03/12 00:52:20;;;;;;;9.23;3.88;;;6.90;52.60;;;;;;5067679;28;20040;-86
2022/03/12 00:54:46;;;;;;;7.40;3.72;;;7.50;53.00;;;;;;5034040;28;20090;-87
2022/03/12 00:57:13;;;;;;;6.07;3.88;;;7.10;53.30;;;;;;5017551;28;20072;-87
2022/03/12 00:59:41;;;;;;;8.07;3.72;;;6.10;52.20;;;;;;5034770;28;20044;-88
2022/03/12 01:02:10;;;;;;;6.88;3.45;;;6.10;52.10;;;;;;5067307;28;20032;-87
2022/03/12 01:04:36;;;;;;;6.53;3.85;;;6.10;52.30;;;;;;5052012;28;20083;-87
2022/03/12 01:07:03;;;;;;;6.75;4.05;;;7.50;53.10;;;;;;5067459;28;20067;-87
2022/03/12 01:09:29;;;;;;;8.85;3.80;;;6.10;52.30;;;;;;5035394;28;20082;-87
2022/03/12 01:11:55;;;;;;;11.27;4.15;;;6.10;52.20;;;;;;5034781;28;20139;-87
2022/03/12 01:14:21;;;;;;;14.73;3.75;;;6.10;52.30;;;;;;5019951;28;20041;-87
2022/03/12 01:16:47;;;;;;;8.75;3.65;;;6.60;52.50;;;;;;5059636;28;20041;-87
2022/03/12 01:19:14;;;;;;;10.32;3.50;;;7.40;53.00;;;;;;5069657;28;20052;-87
2022/03/12 01:21:40;;;;;;;6.13;3.42;;;6.10;51.90;;;;;;5036649;28;20033;-89
2022/03/12 01:24:05;;;;;;;8.32;4.15;;;7.10;52.80;;;;;;5017282;28;20079;-87
2022/03/12 01:26:34;;;;;;;7.78;3.65;;;6.10;52.20;;;;;;5034994;28;20052;-88
2022/03/12 01:29:00;;;;;;;7.43;4.35;;;6.10;52.20;;;;;;5050181;28;20036;-88
2022/03/12 01:31:26;;;;;;;6.38;3.70;;;6.10;52.20;;;;;;5017044;28;20037;-89
2022/03/12 01:33:52;;;;;;;9.50;4.10;;;6.10;52.10;;;;;;5034144;28;20044;-88
2022/03/12 01:36:17;;;;;;;6.43;3.65;;;6.10;52.10;;;;;;5032907;28;20349;-88
2022/03/12 01:38:50;;;;;;;8.50;3.63;;;6.10;52.20;;;;;;5034298;28;20080;-88
2022/03/12 01:41:24;;;;;;;8.63;3.45;;;6.10;52.10;;;;;;5049714;28;20167;-87
2022/03/12 01:43:53;;;;;;;10.32;4.85;;;6.10;52.20;;;;;;5050480;28;20080;-89
2022/03/12 01:46:43;;;;;;;9.07;4.40;;;6.10;52.20;;;;;;5033834;28;20052;-89
2022/03/12 01:49:12;;;;;;;8.70;3.90;;;6.10;52.30;;;;;;5048649;28;20500;-88
2022/03/12 01:51:40;;;;;;;6.45;3.63;;;6.10;52.30;;;;;;5050465;28;20085;-88
2022/03/12 01:54:06;;;;;;;10.50;4.15;;;7.20;52.90;;;;;;5049249;28;20117;-88
2022/03/12 01:56:34;;;;;;;7.47;4.00;;;7.10;53.00;;;;;;5033452;28;20189;-89
2022/03/12 01:59:01;;;;;;;7.53;3.65;;;6.00;52.50;;;;;;5033498;28;20045;-88
2022/03/12 02:01:31;;;;;;;7.20;4.18;;;7.30;53.10;;;;;;5050075;28;20127;-88
2022/03/12 02:03:58;;;;;;;7.63;3.70;;;6.00;52.40;;;;;;5033418;28;20044;-88
2022/03/12 02:06:24;;;;;;;12.68;4.38;;;7.00;53.00;;;;;;5016074;28;20516;-88
2022/03/12 02:08:57;;;;;;;8.45;4.57;;;7.40;53.40;;;;;;5049757;28;20048;-88
2022/03/12 02:11:32;;;;;;;7.78;3.78;;;7.20;53.20;;;;;;5049303;28;20051;-88
2022/03/12 02:14:08;;;;;;;10.30;3.60;;;7.30;53.50;;;;;;5049221;28;20098;-88
2022/03/12 02:16:35;;;;;;;11.45;3.28;;;6.00;52.80;;;;;;5049334;28;20048;-88
2022/03/12 02:19:01;;;;;;;8.57;3.50;;;7.10;53.30;;;;;;5048677;28;20044;-88
2022/03/12 02:21:51;;;;;;;8.18;4.43;;;7.00;53.30;;;;;;5049897;28;20044;-89
2022/03/12 02:24:18;;;;;;;9.02;4.20;;;6.00;52.80;;;;;;5048758;28;20048;-88
2022/03/12 02:26:45;;;;;;;11.43;4.07;;;6.00;52.80;;;;;;5016296;28;20040;-88
2022/03/12 02:29:13;;;;;;;8.27;4.15;;;7.10;53.60;;;;;;5048929;28;20043;-88
2022/03/12 02:31:46;;;;;;;12.70;4.18;;;5.90;52.90;;;;;;5048973;28;20141;-88
2022/03/12 02:34:12;;;;;;;;;;;6.60;53.40;;;;;;5066801;28;20086;-88
2022/03/12 02:36:44;;;;;;;7.60;3.92;;;7.00;53.70;;;;;;5048211;28;20009;-88
2022/03/12 02:39:11;;;;;;;9.60;4.93;;;5.90;53.10;;;;;;5066084;28;20048;-88
2022/03/12 02:41:36;;;;;;;9.85;4.47;;;5.90;53.30;;;;;;5048625;28;20048;-88
2022/03/12 02:44:02;;;;;;;9.02;4.25;;;6.90;53.90;;;;;;5065264;28;20044;-88
2022/03/12 02:46:32;;;;;;;9.48;3.83;;;5.90;53.40;;;;;;5032215;28;20041;-88
2022/03/12 02:48:58;;;;;;;12.80;4.80;;;6.60;53.80;;;;;;5031912;28;20041;-88
2022/03/12 02:51:26;;;;;;;7.60;4.03;;;5.80;53.50;;;;;;5049044;28;20041;-88
2022/03/12 02:53:56;;;;;;;8.57;4.93;;;5.80;53.50;;;;;;5031768;28;20132;-88
2022/03/12 02:56:26;;;;;;;7.70;4.32;;;5.80;53.70;;;;;;5033677;28;20047;-88
2022/03/12 02:58:53;;;;;;;11.07;4.30;;;7.20;54.50;;;;;;5048383;28;20040;-88
2022/03/12 03:01:19;;;;;;;7.10;3.70;;;6.60;54.10;;;;;;5064823;28;20094;-88
2022/03/12 03:03:46;;;;;;;6.07;3.63;;;5.80;53.60;;;;;;5048962;28;20041;-88
2022/03/12 03:06:16;;;;;;;10.38;4.13;;;6.70;54.20;;;;;;5047829;28;20507;-87
2022/03/12 03:08:43;;;;;;;7.13;3.90;;;7.00;54.40;;;;;;5048658;28;20047;-86
2022/03/12 03:11:12;;;;;;;10.73;4.38;;;5.80;53.50;;;;;;5031242;28;20041;-88
2022/03/12 03:13:44;;;;;;;9.88;4.55;;;5.80;53.60;;;;;;5048935;28;20425;-88
2022/03/12 03:16:21;;;;;;;9.15;4.78;;;7.20;54.30;;;;;;5048171;28;20052;-89
2022/03/12 03:18:51;;;;;;;11.07;4.30;;;5.80;53.80;;;;;;5031511;28;20057;-88
2022/03/12 03:21:19;;;;;;;8.63;4.00;;;5.80;53.80;;;;;;5049054;28;20044;-88
2022/03/12 03:23:46;;;;;;;16.48;4.85;;;5.80;53.90;;;;;;5031221;28;20488;-85
2022/03/12 03:26:14;;;;;;;6.22;3.85;;;6.90;54.60;;;;;;5032725;28;20438;-88
2022/03/12 03:28:41;;;;;;;6.95;4.15;;;7.20;54.60;;;;;;5064612;28;20563;-86
2022/03/12 03:31:07;;;;;;;6.82;4.50;;;5.70;53.90;;;;;;5032109;28;20395;-88
2022/03/12 03:33:33;;;;;;;9.52;4.65;;;5.70;54.10;;;;;;5048280;28;20147;-88
2022/03/12 03:35:59;;;;;;;8.23;4.85;;;6.80;55.30;;;;;;5031733;28;20396;-89
2022/03/12 03:38:25;;;;;;;10.18;4.55;;;6.60;54.70;;;;;;5032269;28;20500;-88
2022/03/12 03:40:51;;;;;;;7.10;4.18;;;5.70;54.40;;;;;;5032367;28;20048;-88
2022/03/12 03:43:23;;;;;;;7.35;3.97;;;6.20;54.80;;;;;;5052944;28;20041;-88
2022/03/12 03:45:51;;;;;;;7.43;4.50;;;5.60;54.50;;;;;;5066514;28;20055;-88
2022/03/12 03:48:19;;;;;;;15.93;4.18;;;5.60;54.50;;;;;;5071939;28;20076;-88
2022/03/12 03:50:47;;;;;;;7.15;4.30;;;6.60;55.30;;;;;;5049119;28;20045;-88
2022/03/12 03:53:15;;;;;;;9.18;4.10;;;5.90;54.90;;;;;;5047404;28;20040;-88
2022/03/12 03:55:42;;;;;;;5.43;3.72;;;6.40;55.40;;;;;;5048524;28;20587;-88
2022/03/12 03:58:08;;;;;;;8.35;4.75;;;6.80;55.60;;;;;;5047453;28;20058;-86
2022/03/12 04:00:35;;;;;;;6.47;3.70;;;5.80;55.20;;;;;;5064962;28;20223;-88
2022/03/12 04:03:02;;;;;;;8.13;4.05;;;6.30;55.40;;;;;;5064234;28;20048;-89
2022/03/12 04:05:34;;;;;;;10.75;4.38;;;5.50;55.20;;;;;;5047750;28;20075;-89
2022/03/12 04:08:00;;;;;;;7.22;4.07;;;5.90;55.40;;;;;;5031556;28;20045;-89
2022/03/12 04:10:29;;;;;;;14.80;3.92;;;6.70;56.00;;;;;;5063859;28;20041;-86
2022/03/12 04:12:57;;;;;;;6.63;3.70;;;5.40;55.40;;;;;;5064821;28;20037;-88
2022/03/12 04:15:23;;;;;;;8.70;4.20;;;5.40;55.30;;;;;;5030686;28;20096;-86
2022/03/12 04:17:53;;;;;;;8.38;3.92;;;5.40;55.50;;;;;;5031554;28;20568;-89
2022/03/12 04:20:20;;;;;;;7.35;3.85;;;5.40;55.50;;;;;;5051017;28;20245;-88
2022/03/12 04:22:51;;;;;;;6.95;3.50;;;5.30;55.50;;;;;;5051080;28;20487;-88
2022/03/12 04:25:18;;;;;;;7.95;3.97;;;5.40;55.70;;;;;;5052547;28;20048;-88
2022/03/12 04:27:44;;;;;;;9.93;4.10;;;5.30;55.70;;;;;;5051044;28;20067;-89
2022/03/12 04:30:12;;;;;;;8.63;4.28;;;5.30;55.60;;;;;;5069060;28;20506;-87
2022/03/12 04:32:39;;;;;;;12.77;4.28;;;5.30;55.60;;;;;;5050837;28;20055;-86
2022/03/12 04:35:06;;;;;;;7.18;4.07;;;6.60;56.50;;;;;;5067856;28;20478;-88
2022/03/12 04:37:36;;;;;;;7.18;3.83;;;5.20;55.90;;;;;;5018167;28;20041;-88
2022/03/12 04:40:12;;;;;;;8.32;4.57;;;5.20;56.00;;;;;;5051300;28;20132;-88
2022/03/12 04:42:39;;;;;;;10.57;4.13;;;5.20;56.10;;;;;;5052233;28;20054;-87
2022/03/12 04:45:09;;;;;;;8.10;4.47;;;6.50;57.00;;;;;;5050357;28;20514;-88
2022/03/12 04:47:35;;;;;;;6.40;3.60;;;5.10;56.20;;;;;;5068416;28;20506;-88
2022/03/12 04:50:03;;;;;;;8.02;3.97;;;5.10;56.50;;;;;;5050568;28;20044;-87
2022/03/12 04:52:30;;;;;;;7.13;4.07;;;5.80;56.90;;;;;;5050739;28;20575;-88
2022/03/12 04:54:56;;;;;;;6.80;3.92;;;5.80;57.00;;;;;;5018799;28;20044;-85
2022/03/12 04:57:22;;;;;;;7.78;4.15;;;6.30;57.40;;;;;;5050065;28;20090;-88
2022/03/12 04:59:48;;;;;;;7.25;3.80;;;5.30;57.10;;;;;;5035499;28;20067;-88
2022/03/12 05:02:14;;;;;;;8.73;4.20;;;5.00;57.10;;;;;;5034160;28;20384;-88
2022/03/12 05:04:40;;;;;;;7.43;3.75;;;5.90;57.60;;;;;;5051422;28;20155;-89
2022/03/12 05:07:08;;;;;;;7.03;3.83;;;5.90;57.90;;;;;;5050356;28;20127;-89
2022/03/12 05:09:34;;;;;;;6.13;3.95;;;6.00;57.90;;;;;;5050694;28;20045;-88
2022/03/12 05:12:04;;;;;;;9.13;4.18;;;4.90;57.30;;;;;;5067498;28;20147;-89
2022/03/12 05:14:32;;;;;;;5.43;3.45;;;4.90;57.40;;;;;;5034076;28;20067;-88
2022/03/12 05:16:58;;;;;;;10.02;4.55;;;6.00;58.00;;;;;;5018954;28;20452;-88
2022/03/12 05:19:25;;;;;;;10.52;4.22;;;4.90;57.60;;;;;;5033463;28;20563;-88
2022/03/12 05:21:50;;;;;;;10.45;4.07;;;4.90;57.50;;;;;;5018374;28;20488;-89
2022/03/12 05:24:16;;;;;;;7.13;3.70;;;5.50;57.90;;;;;;5033994;28;20041;-89
2022/03/12 05:26:42;;;;;;;8.73;4.40;;;5.90;58.30;;;;;;5050316;28;20029;-88
2022/03/12 05:29:07;;;;;;;4.68;3.20;;;4.90;57.50;;;;;;5033794;28;20051;-87
2022/03/12 05:31:33;;;;;;;9.68;4.18;;;6.30;58.40;;;;;;5048424;28;20052;-87
2022/03/12 05:33:59;;;;;;;7.50;3.67;;;6.30;58.60;;;;;;5034526;28;20053;-89
2022/03/12 05:36:25;;;;;;;6.78;4.15;;;4.80;57.70;;;;;;5050049;28;20044;-88
2022/03/12 05:38:50;;;;;;;9.27;4.15;;;4.90;57.70;;;;;;5035034;28;20044;-87
2022/03/12 05:41:16;;;;;;;7.40;4.00;;;5.40;57.90;;;;;;5066548;28;20054;-87
2022/03/12 05:43:45;;;;;;;14.75;4.90;;;5.80;58.40;;;;;;5016971;28;20037;-88
2022/03/12 05:46:15;;;;;;;7.07;3.80;;;4.80;58.10;;;;;;5050410;28;20044;-88
2022/03/12 05:48:42;;;;;;;7.88;3.83;;;6.20;58.90;;;;;;5049482;28;20044;-88
2022/03/12 05:51:09;;;;;;;11.70;4.13;;;6.20;59.10;;;;;;5051116;28;20496;-88
2022/03/12 05:53:36;;;;;;;6.60;3.80;;;6.20;59.10;;;;;;5017171;28;20088;-87
2022/03/12 05:56:03;;;;;;;6.97;3.78;;;6.20;59.30;;;;;;5034447;28;20044;-87
2022/03/12 05:58:35;;;;;;;11.35;3.70;;;4.80;58.30;;;;;;5049997;28;20138;-87
2022/03/12 06:01:01;;;;;;;9.68;4.03;;;4.80;58.40;;;;;;5035537;28;20095;-87
2022/03/12 06:03:27;;;;;;;11.07;3.60;;;4.90;58.50;;;;;;5050811;28;20048;-87
2022/03/12 06:05:58;;;;;;;6.95;4.18;;;4.90;58.80;;;;;;5017680;28;20112;-88
2022/03/12 06:08:26;;;;;;;8.75;4.28;;;5.80;59.10;;;;;;5022550;28;20083;-87
2022/03/12 06:10:55;;;;;;;7.65;3.67;;;4.90;58.80;;;;;;5019480;28;20051;-87
2022/03/12 06:13:29;;;;;;;7.53;3.97;;;4.90;58.90;;;;;;5051251;28;20047;-88
2022/03/12 06:15:58;;;;;;;7.75;3.70;;;4.90;60.00;;;;;;5034931;28;20487;-88
2022/03/12 06:18:34;;;;;;;8.60;4.38;;;5.60;59.40;;;;;;5035183;28;20478;-85
2022/03/12 06:21:01;;;;;;;7.38;3.83;;;4.80;59.00;;;;;;5050876;28;20135;-86
2022/03/12 06:23:28;;;;;;;7.40;3.80;;;4.80;59.00;;;;;;5049201;28;20449;-88
2022/03/12 06:25:54;;;;;;;7.43;4.38;;;4.80;59.00;;;;;;5017625;28;20404;-88
2022/03/12 06:28:21;;;;;;;8.35;4.32;;;5.70;59.50;;;;;;5065317;28;20071;-85
2022/03/12 06:30:48;;;;;;;9.05;4.25;;;5.80;59.30;;;;;;5065508;28;20047;-89
2022/03/12 06:33:18;;;;;;;6.93;3.42;;;6.10;59.30;;;;;;5049967;28;20116;-87
2022/03/12 06:35:46;;;;;;;7.93;4.35;;;4.90;58.50;;;;;;5032294;28;20044;-88
2022/03/12 06:38:14;;;;;;;7.78;4.00;;;5.00;58.40;;;;;;5033818;28;20040;-89
2022/03/12 06:40:40;;;;;;;6.70;3.90;;;5.00;58.30;;;;;;5032331;28;20549;-86
2022/03/12 06:43:08;;;;;;;7.53;3.88;;;5.00;58.30;;;;;;5032638;28;20361;-87
2022/03/12 06:45:35;;;;;;;8.23;3.95;;;5.00;58.50;;;;;;5032893;28;20041;-87
2022/03/12 06:48:00;;;;;;;7.28;4.00;;;5.00;58.50;;;;;;5032024;28;20492;-86
2022/03/12 06:50:27;;;;;;;5.38;3.38;;;5.00;58.40;;;;;;5049439;28;20039;-86
2022/03/12 06:52:53;;;;;;;11.45;4.40;;;6.00;59.20;;;;;;5064829;28;20086;-84
2022/03/12 06:55:23;;;;;;;7.10;3.67;;;6.20;59.00;;;;;;5049513;28;20044;-85
2022/03/12 06:57:51;;;;;;;8.57;3.75;;;6.10;58.70;;;;;;5065135;28;20052;-87
2022/03/12 07:00:28;;;;;;;13.73;3.28;;;6.10;58.70;;;;;;5033136;28;20036;-80
2022/03/12 07:02:55;;;;;;;7.47;3.70;;;6.20;58.60;;;;;;5066424;28;20123;-81
2022/03/12 07:05:21;;;;;;;8.00;3.50;;;5.10;58.10;;;;;;5049440;28;20044;-81
2022/03/12 07:07:47;;;;;;;5.95;3.53;;;5.20;58.20;;;;;;5067205;28;20087;-82
2022/03/12 07:10:14;;;;;;;7.70;4.00;;;5.20;58.20;;;;;;5048709;28;20045;-83
2022/03/12 07:12:43;;;;;;;5.13;3.30;;;5.20;58.20;;;;;;5068144;28;20044;-83
2022/03/12 07:15:09;;;;;;;6.55;3.75;;;5.30;58.40;;;;;;5066842;28;20475;-82
2022/03/12 07:17:35;;;;;;;10.35;4.05;;;5.30;58.50;;;;;;5065977;28;20084;-81
2022/03/12 07:20:03;;;;;;;12.45;4.40;;;5.40;58.50;;;;;;5066171;28;20087;-82
2022/03/12 07:22:29;;;;;;;5.93;3.63;;;5.40;58.60;;;;;;5066912;28;20052;-81
2022/03/12 07:24:55;;;;;;;8.57;3.97;;;5.40;58.50;;;;;;5066666;28;20040;-82
2022/03/12 07:27:21;;;;;;;7.93;3.80;;;5.40;58.30;;;;;;5031971;28;20047;-82
2022/03/12 07:29:47;;;;;;;7.10;3.63;;;5.40;58.40;;;;;;5068040;28;20036;-82
2022/03/12 07:32:13;;;;;;;6.65;3.47;;;6.30;58.80;;;;;;5066634;28;20083;-83
2022/03/12 07:34:39;;;;;;;6.07;3.88;;;5.40;58.40;;;;;;5048982;28;20059;-84
2022/03/12 07:37:08;;;;;;;5.07;3.25;;;5.40;58.40;;;;;;5065757;28;20045;-83
2022/03/12 07:39:35;;;;;;;6.93;4.00;;;5.40;58.70;;;;;;5049063;28;20043;-82
2022/03/12 07:42:03;;;;;;;12.77;4.13;;;5.40;58.80;;;;;;5067699;28;20051;-82
2022/03/12 07:44:29;;;;;;;6.63;4.20;;;5.40;58.90;;;;;;5064709;28;20516;-82
2022/03/12 07:46:54;;;;;;;9.00;3.90;;;5.40;58.90;;;;;;5066217;28;20051;-83
2022/03/12 07:49:20;;;;;;;13.13;4.38;;;5.50;59.00;;;;;;5048835;28;20119;-81
2022/03/12 07:51:47;;;;;;;8.07;4.10;;;6.40;59.60;;;;;;5048975;28;20434;-81
2022/03/12 07:54:14;;;;;;;8.90;3.88;;;5.70;59.10;;;;;;5067055;28;20488;-81
2022/03/12 07:56:41;;;;;;;9.70;3.67;;;5.70;59.30;;;;;;5069674;28;20049;-82
2022/03/12 07:59:06;;;;;;;8.82;4.25;;;5.80;58.90;;;;;;5070418;28;20408;-81
2022/03/12 08:01:33;;;;;;;6.40;3.65;;;6.00;59.00;;;;;;5070394;28;20055;-81
2022/03/12 08:04:01;;;;;;;6.55;4.20;;;6.10;58.80;;;;;;5053858;28;20049;-82
2022/03/12 08:06:30;;;;;;;5.10;3.67;;;6.20;59.40;;;;;;5035551;28;20127;-82
2022/03/12 08:08:57;;;;;;;7.28;4.53;;;6.40;58.10;;;;;;5069352;28;20047;-83
2022/03/12 08:11:28;;;;;;;7.50;3.88;;;6.40;58.00;;;;;;5053158;28;20500;-82
2022/03/12 08:14:22;;;;;;;14.38;4.05;;;6.60;58.10;;;;;;5069313;28;20048;-83
2022/03/12 08:16:50;;;;;;;6.57;3.75;;;6.80;57.70;;;;;;5070222;28;20083;-80
2022/03/12 08:19:17;;;;;;;7.38;3.92;;;6.90;57.50;;;;;;5070517;28;20049;-82
2022/03/12 08:21:43;;;;;;;6.43;3.72;;;7.00;57.40;;;;;;5054287;28;20075;-83
2022/03/12 08:24:10;;;;;;;6.93;4.10;;;7.20;57.00;;;;;;5070958;28;20434;-83
2022/03/12 08:26:41;;;;;;;8.38;4.05;;;7.30;56.90;;;;;;5037291;28;20063;-82
2022/03/12 08:29:09;;;;;;;8.10;4.45;;;7.40;56.60;;;;;;5070909;28;20040;-83
2022/03/12 08:31:35;;;;;;;7.72;4.00;;;7.60;56.20;;;;;;5069532;28;20045;-83
2022/03/12 08:34:01;;;;;;;10.38;4.28;;;7.60;56.30;;;;;;5053741;28;20044;-81
2022/03/12 08:36:26;;;;;;;8.10;4.43;;;7.90;56.40;;;;;;5068907;28;20365;-81
2022/03/12 08:38:53;;;;;;;11.43;4.25;;;7.70;56.20;;;;;;5053235;28;20048;-81
2022/03/12 08:41:22;;;;;;;8.20;4.38;;;7.90;56.30;;;;;;5069403;28;20543;-81
2022/03/12 08:43:48;;;;;;;9.13;4.00;;;7.90;56.40;;;;;;5069531;28;20036;-80
2022/03/12 08:46:14;;;;;;;14.80;4.80;;;8.00;56.10;;;;;;5071468;28;20080;-80
2022/03/12 08:48:40;;;;;;;8.45;3.97;;;8.10;56.10;;;;;;5069773;28;20090;-80
2022/03/12 08:51:07;;;;;;;12.65;4.10;;;8.30;56.30;;;;;;5069308;28;20067;-78
2022/03/12 08:53:33;;;;;;;6.20;3.85;;;8.40;55.80;;;;;;5069587;28;20438;-78
2022/03/12 08:56:00;;;;;;;7.35;4.57;;;8.50;55.80;;;;;;5070067;28;20044;-78
2022/03/12 08:58:27;;;;;;;8.85;4.28;;;8.70;55.60;;;;;;5068827;28;20044;-79
2022/03/12 09:00:53;;;;;;;7.28;4.28;;;8.70;55.50;;;;;;5069385;28;20049;-80
2022/03/12 09:03:20;;;;;;;7.28;4.15;;;8.70;55.70;;;;;;5052906;28;20076;-80
2022/03/12 09:05:47;;;;;;;8.27;4.32;;;8.80;55.50;;;;;;5067934;28;20518;-80
2022/03/12 09:08:15;;;;;;;7.45;4.82;;;8.90;55.60;;;;;;5070329;28;20647;-81
2022/03/12 09:10:41;;;;;;;7.72;4.65;;;9.00;55.60;;;;;;5069709;28;20045;-80
2022/03/12 09:13:12;;;;;;;9.30;4.65;;;9.10;55.70;;;;;;5070157;28;20059;-80
2022/03/12 09:15:39;;;;;;;8.52;4.70;;;9.90;56.00;;;;;;5069985;28;20656;-80
2022/03/12 09:18:06;;;;;;;8.95;4.40;;;9.80;55.60;;;;;;5067826;28;20045;-80
2022/03/12 09:20:39;;;;;;;12.68;4.60;;;9.30;55.40;;;;;;5069259;28;20160;-80
2022/03/12 09:23:05;;;;;;;12.35;4.85;;;9.40;55.60;;;;;;5067882;28;20053;-80
2022/03/12 09:25:31;;;;;;;9.68;4.70;;;9.50;55.60;;;;;;5069038;28;20045;-80
2022/03/12 09:27:57;;;;;;;10.30;4.45;;;10.70;56.10;;;;;;5069271;28;20068;-80
2022/03/12 09:30:22;;;;;;;7.35;4.60;;;9.70;55.90;;;;;;5069917;28;20049;-81
2022/03/12 09:32:48;;;;;;;7.53;4.13;;;9.90;55.60;;;;;;5070108;28;20044;-79
2022/03/12 09:35:14;;;;;;;7.57;4.60;;;10.00;55.30;;;;;;5067696;28;20047;-79
2022/03/12 09:37:40;;;;;;;8.63;4.28;;;10.20;55.40;;;;;;5052666;28;20703;-80
2022/03/12 09:40:08;;;;;;;11.85;5.10;;;10.20;55.20;;;;;;5067605;28;20040;-80
2022/03/12 09:42:34;;;;;;;8.15;4.78;;;10.40;56.10;;;;;;5070740;28;20499;-80
2022/03/12 09:45:02;;;;;;;7.70;4.60;;;10.60;55.20;;;;;;5034662;28;20070;-80
2022/03/12 09:47:27;;;;;;;10.20;4.40;;;10.80;54.80;;;;;;5069571;28;20044;-80
2022/03/12 09:49:53;;;;;;;9.23;4.88;;;11.00;54.90;;;;;;5068442;28;20117;-81
2022/03/12 09:52:19;;;;;;;8.07;4.60;;;11.30;54.70;;;;;;5067367;28;20448;-80
2022/03/12 09:54:45;;;;;;;6.80;3.90;;;11.50;54.50;;;;;;5068235;28;20097;-80
2022/03/12 09:57:11;;;;;;;8.27;4.70;;;11.50;54.20;;;;;;5066671;28;20072;-80
2022/03/12 09:59:37;;;;;;;11.35;5.15;;;11.50;54.40;;;;;;5051797;28;20045;-80
2022/03/12 10:02:03;;;;;;;8.15;4.60;;;11.70;54.70;;;;;;5066819;28;20458;-80
2022/03/12 10:04:28;;;;;;;10.07;5.32;;;11.80;54.70;;;;;;5069046;28;20044;-80
2022/03/12 10:06:56;;;;;;;16.95;5.00;;;12.90;55.30;;;;;;5051108;28;20207;-80
2022/03/12 10:09:22;;;;;;;7.13;4.75;;;12.10;55.30;;;;;;5049964;28;20131;-80
2022/03/12 10:11:51;;;;;;;9.55;5.07;;;12.10;55.50;;;;;;5069084;28;20091;-80
2022/03/12 10:14:18;;;;;;;8.88;4.50;;;12.30;55.80;;;;;;5067840;28;20090;-80
2022/03/12 10:16:44;;;;;;;11.27;4.40;;;12.30;56.10;;;;;;5068221;28;20060;-80
2022/03/12 10:19:10;;;;;;;9.50;4.90;;;12.30;56.10;;;;;;5066394;28;20044;-80
2022/03/12 10:21:42;;;;;;;7.50;4.68;;;12.40;56.60;;;;;;5033738;28;20051;-80
2022/03/12 10:24:09;;;;;;;6.50;4.43;;;12.40;56.70;;;;;;5067293;28;20492;-80
2022/03/12 10:26:34;;;;;;;10.07;5.78;;;12.50;56.70;;;;;;5066580;28;20071;-80
2022/03/12 10:29:00;;;;;;;7.80;4.95;;;12.60;56.80;;;;;;5050830;28;20512;-80
2022/03/12 10:31:26;;;;;;;9.30;4.93;;;12.70;56.90;;;;;;5032887;28;20093;-79
2022/03/12 10:33:52;;;;;;;10.77;5.63;;;12.70;57.10;;;;;;5068801;28;20366;-79
2022/03/12 10:36:18;;;;;;;8.52;5.38;;;12.80;57.30;;;;;;5066144;28;20397;-80
2022/03/12 10:38:47;;;;;;;7.75;5.20;;;12.90;57.60;;;;;;5050501;28;20110;-80
2022/03/12 10:41:13;;;;;;;14.68;5.05;;;13.00;57.70;;;;;;5068439;28;20037;-79
2022/03/12 10:44:05;;;;;;;10.60;4.95;;;13.10;57.70;;;;;;5067376;28;20037;-80
2022/03/12 10:46:33;;;;;;;7.63;5.05;;;13.10;57.90;;;;;;5066091;28;20063;-79
2022/03/12 10:48:59;;;;;;;8.43;5.30;;;13.10;57.90;;;;;;5066144;28;20443;-80
2022/03/12 10:51:28;;;;;;;8.35;5.10;;;13.20;58.10;;;;;;5068135;28;20044;-79
2022/03/12 10:54:10;;;;;;;8.80;6.10;;;14.50;59.00;;;;;;5066767;28;20075;-80
2022/03/12 10:56:50;;;;;;;11.13;5.68;;;13.20;58.30;;;;;;5049558;28;20369;-80
2022/03/12 10:59:25;;;;;;;11.82;5.00;;;13.10;59.10;;;;;;5066816;28;20045;-79
2022/03/12 11:01:54;;;;;;;10.02;5.78;;;13.10;59.10;;;;;;5066106;28;20052;-79
2022/03/12 11:04:26;;;;;;;9.18;5.88;;;13.10;59.30;;;;;;5066454;28;20056;-80
2022/03/12 11:06:55;;;;;;;6.50;4.65;;;14.50;61.00;;;;;;5066766;28;20129;-80
2022/03/12 11:09:36;;;;;;;11.98;5.53;;;13.20;60.10;;;;;;5065860;28;20072;-80
2022/03/12 11:12:04;;;;;;;8.90;5.80;;;13.30;60.70;;;;;;5050145;28;20044;-79
2022/03/12 11:14:31;;;;;;;10.43;5.65;;;13.40;60.30;;;;;;5065558;28;20071;-79
2022/03/12 11:16:58;;;;;;;12.63;5.70;;;13.40;60.50;;;;;;5032774;28;20049;-80
2022/03/12 11:19:42;;;;;;;9.70;5.75;;;13.50;60.90;;;;;;5032789;28;20084;-80
2022/03/12 11:22:12;;;;;;;;;;;14.20;61.30;;;;;;5065650;28;20049;-80
2022/03/12 11:24:47;;;;;;;10.10;5.68;;;13.50;62.50;;;;;;5049680;28;19920;-80
2022/03/12 11:27:30;;;;;;;13.52;5.88;;;13.60;61.30;;;;;;5065581;28;20052;-79
2022/03/12 11:29:58;;;;;;;7.22;4.35;;;13.60;61.50;;;;;;5066510;28;20142;-80
2022/03/12 11:32:24;;;;;;;9.13;5.22;;;13.60;61.40;;;;;;5048975;28;20048;-80
2022/03/12 11:34:50;;;;;;;10.85;5.35;;;13.70;61.20;;;;;;5066568;28;20444;-80
2022/03/12 11:37:21;;;;;;;11.20;5.60;;;13.80;61.20;;;;;;5066252;28;20487;-80
2022/03/12 11:39:53;;;;;;;9.02;5.65;;;14.00;61.30;;;;;;5064774;28;20055;-81
2022/03/12 11:42:22;;;;;;;7.63;5.30;;;14.00;61.20;;;;;;5065977;28;20044;-80
2022/03/12 11:44:56;;;;;;;11.52;5.45;;;14.00;61.40;;;;;;5049123;28;20131;-80
2022/03/12 11:47:33;;;;;;;9.52;4.75;;;14.00;61.80;;;;;;5066957;28;20412;-80
2022/03/12 11:50:01;;;;;;;7.95;5.38;;;14.10;62.50;;;;;;5066796;28;20040;-80
2022/03/12 11:52:27;;;;;;;12.13;5.30;;;14.20;62.50;;;;;;5048476;28;20048;-80
2022/03/12 11:54:57;;;;;;;8.57;5.05;;;14.30;62.80;;;;;;5066140;28;20212;-79
2022/03/12 11:57:32;;;;;;;8.23;5.18;;;14.40;62.80;;;;;;5048517;28;20090;-79
2022/03/12 11:59:59;;;;;;;10.30;4.40;;;14.60;62.90;;;;;;5065659;28;20048;-79
2022/03/12 12:02:32;;;;;;;8.80;3.97;;;14.70;62.80;;;;;;5049477;28;20554;-79
2022/03/12 12:05:04;;;;;;;6.75;4.00;;;14.70;63.00;;;;;;5048326;28;20251;-80
2022/03/12 12:07:36;;;;;;;6.50;3.77;;;14.70;63.20;;;;;;5050675;28;20093;-81
2022/03/12 12:10:08;;;;;;;9.30;3.83;;;14.70;63.40;;;;;;5065446;28;20106;-80
2022/03/12 12:12:34;;;;;;;7.38;3.75;;;14.70;63.40;;;;;;5067365;28;20132;-81
2022/03/12 12:15:04;;;;;;;10.32;3.67;;;14.80;63.40;;;;;;5065427;28;20052;-80
2022/03/12 12:17:32;;;;;;;6.95;4.18;;;14.90;63.50;;;;;;5065996;28;20229;-80
2022/03/12 12:19:58;;;;;;;11.05;3.83;;;15.10;63.30;;;;;;5066019;28;20056;-80
2022/03/12 12:22:25;;;;;;;7.80;3.85;;;15.20;63.00;;;;;;5066019;28;20047;-80
2022/03/12 12:24:56;;;;;;;8.60;3.15;;;15.20;62.60;;;;;;5016529;28;20496;-80
2022/03/12 12:27:25;;;;;;;11.32;4.13;;;15.20;62.20;;;;;;5065872;28;20555;-80
2022/03/12 12:29:54;;;;;;;6.25;3.58;;;15.20;62.10;;;;;;5065503;28;20070;-80
2022/03/12 12:32:26;;;;;;;4.50;3.13;;;15.20;62.10;;;;;;5065446;28;20127;-79
2022/03/12 12:35:04;;;;;;;5.13;3.23;;;15.30;61.80;;;;;;5064222;28;20105;-80
2022/03/12 12:38:02;;;;;;;6.60;3.10;;;15.20;61.60;;;;;;5067036;28;20103;-80
2022/03/12 12:40:35;;;;;;;5.55;3.00;;;15.10;62.20;;;;;;5062908;28;20529;-80
2022/03/12 12:43:12;;;;;;;5.38;3.25;;;15.10;62.50;;;;;;5069161;28;20075;-80
2022/03/12 12:46:05;;;;;;;7.30;4.43;;;15.10;62.70;;;;;;5069767;28;20174;-80
2022/03/12 12:48:45;;;;;;;5.38;3.53;;;15.20;63.10;;;;;;5069247;28;20060;-79
2022/03/12 12:51:15;;;;;;;8.48;3.15;;;15.30;62.40;;;;;;5069376;28;20073;-80
2022/03/12 12:53:52;;;;;;;7.70;3.63;;;15.30;62.30;;;;;;5070421;28;20040;-80
2022/03/12 12:56:18;;;;;;;6.68;3.58;;;15.40;62.00;;;;;;5068378;28;20076;-79
2022/03/12 12:59:02;;;;;;;5.47;3.40;;;15.40;61.70;;;;;;5071111;28;20403;-80